KBGR/BGR METAR and TAF weather

Enter ICAO airport designator
Station Type Date Time Source
KBGR METAR 2019/06/17 11:53 UTC NOAA

KBGR 171153Z 32008KT 10SM FEW060 FEW250 17/11 A2991 RMK AO2 SLP126 T01720111 10172 20122 51019


Station Type Date Time Source
KBGR Decoded METAR 2019/06/17 11:53 UTC NOAA

BANGOR INT'L AIRPORT, ME, United States (KBGR) 44-48N 068-49W 57M
Jun 17, 2019 - 07:53 AM EDT / 2019.06.17 1153 UTC
Wind: from the NW (320 degrees) at 9 MPH (8 KT):0
Visibility: 10 mile(s):0
Sky conditions: mostly clear
Temperature: 63.0 F (17.2 C)
Dew Point: 52.0 F (11.1 C)
Relative Humidity: 67%
Pressure (altimeter): 29.91 in. Hg (1012 hPa)
Pressure tendency: 0.06 inches (1.9 hPa) higher than three hours ago
ob: KBGR 171153Z 32008KT 10SM FEW060 FEW250 17/11 A2991 RMK AO2 SLP126 T01720111 10172 20122 51019
cycle: 12

Station Type Date Time Source
KBGR TAF 2019/06/17 12:22 UTC NOAA

TAF KBGR 171120Z 1712/1812 34006KT P6SM FEW080

Example: see airport list